DAL320 KLAX-KATL
Flight info
| Callsign | DAL320 |
|---|---|
| Flight time | 3h 45m |
| Altitude | 39000 |
| Route | DOTSS2 CLEEE PKE HIDAT KA27O NABOB J74 SJN J231 ACH TCC J78 IRW J14 LIT J66 BEATS RUSSA GLAVN2 |
| Aircraft | A339/H-SADE1E2E3GHIJ3J5M1P2RWXY/LB2D1 |
Departure
| Time | 2026-05-08 00:23 |
|---|---|
| Airport | Los Angeles International Airport (KLAX) |
Arrival
| Time | 2026-05-08 04:09 |
|---|---|
| Airport | Hartsfield Jackson Atlanta International Airport (KATL) |
| Time | Latitude | Longitude | Altitude | Speed | Heading |
|---|---|---|---|---|---|
| 2026-05-07 23:56 | 33.94720 | -118.40486 | 136 ft | 0 kts | 134° |
| 2026-05-08 00:10 | 33.94724 | -118.40492 | 136 ft | 2 kts | 134° |
| 2026-05-08 00:10 | 33.94733 | -118.40502 | 136 ft | 0 kts | 134° |
| 2026-05-08 00:10 | 33.94741 | -118.40513 | 136 ft | 2 kts | 130° |
| 2026-05-08 00:11 | 33.94751 | -118.40527 | 136 ft | 2 kts | 124° |
| 2026-05-08 00:11 | 33.94759 | -118.40543 | 136 ft | 2 kts | 119° |
| 2026-05-08 00:11 | 33.94765 | -118.40559 | 136 ft | 2 kts | 113° |
| 2026-05-08 00:11 | 33.94771 | -118.40576 | 136 ft | 2 kts | 108° |
| 2026-05-08 00:12 | 33.94775 | -118.40594 | 136 ft | 2 kts | 102° |
| 2026-05-08 00:12 | 33.94778 | -118.40611 | 136 ft | 2 kts | 97° |
| 2026-05-08 00:12 | 33.94779 | -118.40629 | 136 ft | 2 kts | 91° |
| 2026-05-08 00:12 | 33.94779 | -118.40647 | 137 ft | 2 kts | 86° |
| 2026-05-08 00:13 | 33.94778 | -118.40659 | 137 ft | 0 kts | 83° |
| 2026-05-08 00:13 | 33.94778 | -118.40662 | 137 ft | 0 kts | 82° |
| 2026-05-08 00:13 | 33.94778 | -118.40661 | 137 ft | 0 kts | 82° |
| 2026-05-08 00:16 | 33.94778 | -118.40657 | 137 ft | 2 kts | 82° |
| 2026-05-08 00:16 | 33.94805 | -118.40606 | 136 ft | 7 kts | 30° |
| 2026-05-08 00:16 | 33.94841 | -118.40603 | 136 ft | 2 kts | 9° |
| 2026-05-08 00:16 | 33.94861 | -118.40578 | 135 ft | 6 kts | 69° |
| 2026-05-08 00:17 | 33.94873 | -118.40509 | 135 ft | 10 kts | 83° |
| 2026-05-08 00:17 | 33.94882 | -118.40417 | 134 ft | 12 kts | 83° |
| 2026-05-08 00:17 | 33.94894 | -118.40319 | 133 ft | 6 kts | 82° |
| 2026-05-08 00:17 | 33.94901 | -118.40253 | 133 ft | 8 kts | 82° |
| 2026-05-08 00:18 | 33.94910 | -118.40175 | 132 ft | 9 kts | 83° |
| 2026-05-08 00:18 | 33.94916 | -118.40107 | 131 ft | 7 kts | 84° |
| 2026-05-08 00:18 | 33.94923 | -118.40031 | 130 ft | 10 kts | 83° |
| 2026-05-08 00:18 | 33.94941 | -118.39948 | 128 ft | 5 kts | 57° |
| 2026-05-08 00:19 | 33.94944 | -118.39944 | 128 ft | 0 kts | 50° |
| 2026-05-08 00:20 | 33.94967 | -118.39924 | 127 ft | 9 kts | 27° |
| 2026-05-08 00:21 | 33.95031 | -118.39945 | 127 ft | 11 kts | 292° |
| 2026-05-08 00:21 | 33.95036 | -118.40009 | 127 ft | 0 kts | 264° |
| 2026-05-08 00:22 | 33.95032 | -118.40050 | 127 ft | 24 kts | 264° |
| 2026-05-08 00:22 | 33.94982 | -118.40537 | 134 ft | 88 kts | 263° |
| 2026-05-08 00:22 | 33.94884 | -118.41499 | 136 ft | 141 kts | 263° |
| 2026-05-08 00:23 | 33.94751 | -118.42827 | 271 ft | 171 kts | 263° |
| 2026-05-08 00:23 | 33.94609 | -118.44259 | 846 ft | 173 kts | 263° |
| 2026-05-08 00:23 | 33.94461 | -118.45665 | 1530 ft | 170 kts | 263° |
| 2026-05-08 00:23 | 33.94350 | -118.47107 | 1970 ft | 182 kts | 267° |
| 2026-05-08 00:24 | 33.94296 | -118.48694 | 2345 ft | 199 kts | 268° |
| 2026-05-08 00:24 | 33.94242 | -118.50417 | 2705 ft | 217 kts | 267° |
| 2026-05-08 00:24 | 33.94112 | -118.52301 | 3100 ft | 235 kts | 266° |
| 2026-05-08 00:24 | 33.93956 | -118.54329 | 3549 ft | 252 kts | 266° |
| 2026-05-08 00:25 | 33.93752 | -118.56455 | 4237 ft | 259 kts | 259° |
| 2026-05-08 00:25 | 33.92943 | -118.58393 | 5004 ft | 266 kts | 230° |
| 2026-05-08 00:25 | 33.91436 | -118.59667 | 5765 ft | 273 kts | 203° |
| 2026-05-08 00:25 | 33.89601 | -118.60252 | 6445 ft | 279 kts | 194° |
| 2026-05-08 00:26 | 33.87689 | -118.60667 | 6851 ft | 282 kts | 192° |
| 2026-05-08 00:26 | 33.85723 | -118.61063 | 6962 ft | 284 kts | 192° |
| 2026-05-08 00:26 | 33.83776 | -118.61458 | 6959 ft | 283 kts | 192° |
| 2026-05-08 00:26 | 33.81814 | -118.61855 | 7171 ft | 291 kts | 192° |
| 2026-05-08 00:27 | 33.79807 | -118.62270 | 7886 ft | 293 kts | 191° |
| 2026-05-08 00:27 | 33.77807 | -118.62704 | 8605 ft | 294 kts | 191° |
| 2026-05-08 00:27 | 33.75797 | -118.63160 | 9264 ft | 299 kts | 191° |
| 2026-05-08 00:27 | 33.73747 | -118.63645 | 9882 ft | 304 kts | 191° |
| 2026-05-08 00:28 | 33.71641 | -118.64159 | 10555 ft | 308 kts | 192° |
| 2026-05-08 00:28 | 33.69535 | -118.64445 | 11179 ft | 310 kts | 174° |
| 2026-05-08 00:28 | 33.67473 | -118.63733 | 11839 ft | 307 kts | 148° |
| 2026-05-08 00:28 | 33.65885 | -118.62106 | 12460 ft | 303 kts | 124° |
| 2026-05-08 00:29 | 33.64951 | -118.59862 | 12850 ft | 300 kts | 106° |
| 2026-05-08 00:29 | 33.64369 | -118.57461 | 12958 ft | 300 kts | 102° |
| 2026-05-08 00:29 | 33.63867 | -118.55080 | 12957 ft | 299 kts | 102° |
| 2026-05-08 00:29 | 33.63373 | -118.52657 | 12977 ft | 298 kts | 101° |
| 2026-05-08 00:30 | 33.62907 | -118.50215 | 12942 ft | 298 kts | 96° |
| 2026-05-08 00:30 | 33.62846 | -118.47747 | 13054 ft | 306 kts | 86° |
| 2026-05-08 00:30 | 33.62965 | -118.45105 | 13307 ft | 322 kts | 85° |
| 2026-05-08 00:30 | 33.63087 | -118.42406 | 13700 ft | 334 kts | 86° |
| 2026-05-08 00:31 | 33.63191 | -118.39579 | 14291 ft | 339 kts | 86° |
| 2026-05-08 00:31 | 33.63275 | -118.36782 | 14951 ft | 342 kts | 86° |
| 2026-05-08 00:31 | 33.63350 | -118.33911 | 15615 ft | 345 kts | 86° |
| 2026-05-08 00:31 | 33.63419 | -118.31024 | 16249 ft | 349 kts | 86° |
| 2026-05-08 00:32 | 33.63483 | -118.28137 | 16734 ft | 352 kts | 86° |
| 2026-05-08 00:32 | 33.63545 | -118.25162 | 16944 ft | 353 kts | 86° |
| 2026-05-08 00:32 | 33.63605 | -118.22259 | 16955 ft | 353 kts | 86° |
| 2026-05-08 00:32 | 33.63664 | -118.19280 | 16956 ft | 353 kts | 87° |
| 2026-05-08 00:33 | 33.63713 | -118.16831 | 17010 ft | 356 kts | 86° |
| 2026-05-08 00:33 | 33.63771 | -118.13861 | 17520 ft | 361 kts | 86° |
| 2026-05-08 00:33 | 33.63828 | -118.10844 | 18227 ft | 362 kts | 86° |
| 2026-05-08 00:33 | 33.63884 | -118.07838 | 18871 ft | 365 kts | 86° |
| 2026-05-08 00:34 | 33.63940 | -118.04765 | 19489 ft | 368 kts | 86° |
| 2026-05-08 00:34 | 33.63998 | -118.01694 | 20067 ft | 371 kts | 86° |
| 2026-05-08 00:34 | 33.64054 | -117.98587 | 20654 ft | 374 kts | 86° |
| 2026-05-08 00:34 | 33.64111 | -117.95444 | 21214 ft | 378 kts | 86° |
| 2026-05-08 00:35 | 33.64164 | -117.92302 | 21759 ft | 381 kts | 86° |
| 2026-05-08 00:35 | 33.64219 | -117.89111 | 22305 ft | 384 kts | 86° |
| 2026-05-08 00:35 | 33.64273 | -117.85937 | 22823 ft | 387 kts | 86° |
| 2026-05-08 00:35 | 33.64355 | -117.82709 | 23325 ft | 389 kts | 84° |
| 2026-05-08 00:36 | 33.64614 | -117.79454 | 23824 ft | 392 kts | 80° |
| 2026-05-08 00:36 | 33.65063 | -117.76218 | 24326 ft | 393 kts | 76° |
| 2026-05-08 00:36 | 33.65655 | -117.73029 | 24804 ft | 396 kts | 75° |
| 2026-05-08 00:36 | 33.66275 | -117.69824 | 25278 ft | 398 kts | 74° |
| 2026-05-08 00:37 | 33.66901 | -117.66604 | 25741 ft | 401 kts | 74° |
| 2026-05-08 00:37 | 33.67538 | -117.63314 | 26200 ft | 403 kts | 74° |
| 2026-05-08 00:37 | 33.68164 | -117.60057 | 26634 ft | 406 kts | 74° |
| 2026-05-08 00:38 | 33.69440 | -117.53413 | 27473 ft | 411 kts | 74° |
| 2026-05-08 00:38 | 33.70073 | -117.50106 | 27868 ft | 414 kts | 74° |
| 2026-05-08 00:38 | 33.70716 | -117.46737 | 28258 ft | 416 kts | 74° |
| 2026-05-08 00:38 | 33.71368 | -117.43310 | 28646 ft | 419 kts | 74° |
| 2026-05-08 00:39 | 33.72013 | -117.39912 | 29019 ft | 421 kts | 74° |
| 2026-05-08 00:39 | 33.72662 | -117.36488 | 29389 ft | 423 kts | 74° |
| 2026-05-08 00:39 | 33.73311 | -117.33064 | 29762 ft | 425 kts | 75° |
| 2026-05-08 00:39 | 33.73946 | -117.29578 | 30096 ft | 429 kts | 76° |
| 2026-05-08 00:40 | 33.74443 | -117.26060 | 30434 ft | 432 kts | 79° |
| 2026-05-08 00:40 | 33.74786 | -117.22433 | 30787 ft | 435 kts | 82° |
| 2026-05-08 00:40 | 33.74962 | -117.18802 | 31134 ft | 438 kts | 85° |
| 2026-05-08 00:40 | 33.74974 | -117.15176 | 31448 ft | 441 kts | 88° |
| 2026-05-08 00:41 | 33.74907 | -117.11491 | 31762 ft | 443 kts | 88° |
| 2026-05-08 00:41 | 33.74828 | -117.07753 | 32071 ft | 445 kts | 88° |
| 2026-05-08 00:41 | 33.74749 | -117.04044 | 32373 ft | 447 kts | 88° |
| 2026-05-08 00:41 | 33.74671 | -117.00348 | 32668 ft | 449 kts | 88° |
| 2026-05-08 00:42 | 33.74591 | -116.96593 | 32954 ft | 451 kts | 88° |
| 2026-05-08 00:42 | 33.74510 | -116.92841 | 33248 ft | 452 kts | 88° |
| 2026-05-08 00:42 | 33.74426 | -116.89059 | 33633 ft | 452 kts | 88° |
| 2026-05-08 00:42 | 33.74341 | -116.85290 | 34066 ft | 450 kts | 88° |
| 2026-05-08 00:43 | 33.74256 | -116.81577 | 34497 ft | 448 kts | 88° |
| 2026-05-08 00:43 | 33.74171 | -116.77833 | 34900 ft | 447 kts | 88° |
| 2026-05-08 00:43 | 33.74085 | -116.74127 | 35275 ft | 447 kts | 88° |
| 2026-05-08 00:43 | 33.73996 | -116.70394 | 35656 ft | 446 kts | 88° |
| 2026-05-08 00:44 | 33.73908 | -116.66717 | 36021 ft | 445 kts | 88° |
| 2026-05-08 00:44 | 33.73819 | -116.62989 | 36368 ft | 445 kts | 88° |
| 2026-05-08 00:44 | 33.73729 | -116.59308 | 36699 ft | 444 kts | 88° |
| 2026-05-08 00:44 | 33.73637 | -116.55589 | 37018 ft | 444 kts | 88° |
| 2026-05-08 00:45 | 33.73544 | -116.51903 | 37305 ft | 444 kts | 88° |
| 2026-05-08 00:45 | 33.73451 | -116.48206 | 37542 ft | 445 kts | 88° |
| 2026-05-08 00:45 | 33.73356 | -116.44486 | 37747 ft | 446 kts | 88° |
| 2026-05-08 00:45 | 33.73261 | -116.40802 | 37938 ft | 447 kts | 88° |
| 2026-05-08 00:46 | 33.73163 | -116.37074 | 38133 ft | 449 kts | 88° |
| 2026-05-08 00:46 | 33.73063 | -116.33324 | 38324 ft | 450 kts | 89° |
| 2026-05-08 00:46 | 33.72962 | -116.29556 | 38497 ft | 451 kts | 89° |
| 2026-05-08 00:46 | 33.72860 | -116.25839 | 38663 ft | 453 kts | 89° |
| 2026-05-08 00:47 | 33.72757 | -116.22047 | 38834 ft | 454 kts | 89° |
| 2026-05-08 00:47 | 33.72708 | -116.14475 | 38910 ft | 453 kts | 84° |
| 2026-05-08 00:48 | 33.73306 | -116.06982 | 38951 ft | 450 kts | 78° |
| 2026-05-08 00:48 | 33.74577 | -115.99652 | 38984 ft | 448 kts | 72° |
| 2026-05-08 00:49 | 33.76426 | -115.92558 | 39036 ft | 446 kts | 69° |
| 2026-05-08 00:49 | 33.78386 | -115.85510 | 39068 ft | 446 kts | 69° |
| 2026-05-08 00:50 | 33.80335 | -115.78481 | 39084 ft | 445 kts | 69° |
| 2026-05-08 00:50 | 33.82257 | -115.71524 | 39086 ft | 444 kts | 68° |
| 2026-05-08 00:51 | 33.84194 | -115.64493 | 39056 ft | 444 kts | 69° |
| 2026-05-08 00:51 | 33.86123 | -115.57468 | 39001 ft | 443 kts | 69° |
| 2026-05-08 00:52 | 33.88039 | -115.50472 | 38952 ft | 442 kts | 68° |
| 2026-05-08 00:52 | 33.89946 | -115.43494 | 38932 ft | 442 kts | 68° |
| 2026-05-08 00:53 | 33.91859 | -115.36468 | 38914 ft | 441 kts | 68° |
| 2026-05-08 00:53 | 33.93751 | -115.29507 | 38894 ft | 440 kts | 69° |
| 2026-05-08 00:54 | 33.95644 | -115.22527 | 38875 ft | 439 kts | 69° |
| 2026-05-08 00:54 | 33.97530 | -115.15558 | 38870 ft | 439 kts | 69° |
| 2026-05-08 00:55 | 33.99414 | -115.08572 | 38880 ft | 438 kts | 69° |
| 2026-05-08 00:55 | 34.01295 | -115.01576 | 38878 ft | 437 kts | 69° |
| 2026-05-08 00:56 | 34.03124 | -114.94765 | 38874 ft | 436 kts | 69° |
| 2026-05-08 00:56 | 34.04982 | -114.87828 | 38867 ft | 435 kts | 69° |
| 2026-05-08 00:57 | 34.06824 | -114.80926 | 38872 ft | 436 kts | 69° |
| 2026-05-08 00:57 | 34.08682 | -114.73945 | 38872 ft | 437 kts | 69° |
| 2026-05-08 00:58 | 34.10543 | -114.66960 | 38874 ft | 437 kts | 68° |
| 2026-05-08 00:58 | 34.12489 | -114.60029 | 38876 ft | 437 kts | 68° |
| 2026-05-08 00:59 | 34.14439 | -114.53114 | 38873 ft | 437 kts | 68° |
| 2026-05-08 00:59 | 34.16289 | -114.46519 | 38875 ft | 436 kts | 68° |
| 2026-05-08 01:00 | 34.18221 | -114.39590 | 38874 ft | 436 kts | 68° |
| 2026-05-08 01:00 | 34.20157 | -114.32635 | 38870 ft | 436 kts | 68° |
| 2026-05-08 01:01 | 34.22079 | -114.25710 | 38868 ft | 437 kts | 69° |
| 2026-05-08 01:01 | 34.23994 | -114.18790 | 38863 ft | 437 kts | 68° |
| 2026-05-08 01:02 | 34.25919 | -114.11818 | 38863 ft | 437 kts | 68° |
| 2026-05-08 01:02 | 34.27827 | -114.04888 | 38860 ft | 436 kts | 68° |
| 2026-05-08 01:03 | 34.29731 | -113.97953 | 38872 ft | 436 kts | 69° |
| 2026-05-08 01:03 | 34.31607 | -113.91112 | 38894 ft | 436 kts | 69° |
| 2026-05-08 01:04 | 34.33506 | -113.84164 | 38912 ft | 436 kts | 68° |
| 2026-05-08 01:04 | 34.35402 | -113.77206 | 38929 ft | 436 kts | 68° |
| 2026-05-08 01:05 | 34.37302 | -113.70215 | 38945 ft | 436 kts | 68° |
| 2026-05-08 01:05 | 34.39187 | -113.63271 | 38981 ft | 435 kts | 69° |
| 2026-05-08 01:06 | 34.41059 | -113.56354 | 39000 ft | 435 kts | 69° |
| 2026-05-08 01:06 | 34.42931 | -113.49418 | 39035 ft | 434 kts | 69° |
| 2026-05-08 01:07 | 34.44794 | -113.42494 | 39039 ft | 434 kts | 69° |
| 2026-05-08 01:07 | 34.46655 | -113.35560 | 39057 ft | 435 kts | 69° |
| 2026-05-08 01:08 | 34.48524 | -113.28575 | 39060 ft | 433 kts | 69° |
| 2026-05-08 01:08 | 34.50369 | -113.21669 | 39066 ft | 434 kts | 69° |
| 2026-05-08 01:09 | 34.52221 | -113.14711 | 39070 ft | 433 kts | 69° |
| 2026-05-08 01:09 | 34.54023 | -113.07778 | 39075 ft | 433 kts | 71° |
| 2026-05-08 01:10 | 34.55315 | -113.00645 | 39104 ft | 435 kts | 77° |
| 2026-05-08 01:10 | 34.55937 | -112.93293 | 39120 ft | 439 kts | 83° |
| 2026-05-08 01:11 | 34.55866 | -112.85917 | 39130 ft | 444 kts | 90° |
| 2026-05-08 01:11 | 34.55388 | -112.78433 | 39126 ft | 445 kts | 90° |
| 2026-05-08 01:12 | 34.54905 | -112.71130 | 39139 ft | 444 kts | 90° |
| 2026-05-08 01:12 | 34.54416 | -112.63754 | 39140 ft | 444 kts | 90° |
| 2026-05-08 01:13 | 34.53918 | -112.56324 | 39146 ft | 445 kts | 90° |
| 2026-05-08 01:13 | 34.53415 | -112.48865 | 39149 ft | 446 kts | 90° |
| 2026-05-08 01:14 | 34.52906 | -112.41408 | 39126 ft | 445 kts | 90° |
| 2026-05-08 01:14 | 34.52391 | -112.33905 | 39121 ft | 447 kts | 91° |
| 2026-05-08 01:15 | 34.51880 | -112.26535 | 39123 ft | 448 kts | 91° |
| 2026-05-08 01:15 | 34.51356 | -112.19048 | 39101 ft | 447 kts | 91° |
| 2026-05-08 01:16 | 34.50827 | -112.11533 | 39106 ft | 448 kts | 91° |
| 2026-05-08 01:16 | 34.50227 | -112.04076 | 39096 ft | 450 kts | 94° |
| 2026-05-08 01:17 | 34.49065 | -111.96604 | 39122 ft | 454 kts | 100° |
| 2026-05-08 01:17 | 34.47319 | -111.89217 | 39115 ft | 456 kts | 103° |
| 2026-05-08 01:18 | 34.45488 | -111.81898 | 39104 ft | 456 kts | 103° |
| 2026-05-08 01:18 | 34.43660 | -111.74593 | 39069 ft | 456 kts | 102° |
| 2026-05-08 01:19 | 34.41825 | -111.67263 | 39100 ft | 455 kts | 103° |
| 2026-05-08 01:19 | 34.39984 | -111.59930 | 39136 ft | 456 kts | 103° |
| 2026-05-08 01:20 | 34.38135 | -111.52589 | 39140 ft | 456 kts | 103° |
| 2026-05-08 01:20 | 34.36296 | -111.45306 | 39131 ft | 456 kts | 103° |
| 2026-05-08 01:21 | 34.34639 | -111.37901 | 39116 ft | 454 kts | 98° |
| 2026-05-08 01:21 | 34.33647 | -111.30421 | 39130 ft | 452 kts | 92° |
| 2026-05-08 01:22 | 34.33328 | -111.22898 | 39157 ft | 449 kts | 86° |
| 2026-05-08 01:22 | 34.33609 | -111.15417 | 39165 ft | 447 kts | 83° |
| 2026-05-08 01:23 | 34.34007 | -111.07939 | 39174 ft | 447 kts | 83° |
| 2026-05-08 01:23 | 34.34398 | -111.00424 | 39189 ft | 447 kts | 83° |
| 2026-05-08 01:24 | 34.34779 | -110.92971 | 39174 ft | 447 kts | 83° |
| 2026-05-08 01:24 | 34.35157 | -110.85456 | 39222 ft | 449 kts | 83° |
| 2026-05-08 01:25 | 34.35528 | -110.77932 | 39245 ft | 448 kts | 83° |
| 2026-05-08 01:25 | 34.35894 | -110.70444 | 39227 ft | 448 kts | 84° |
| 2026-05-08 01:26 | 34.36251 | -110.62966 | 39218 ft | 448 kts | 84° |
| 2026-05-08 01:26 | 34.36608 | -110.55397 | 39225 ft | 448 kts | 84° |
| 2026-05-08 01:27 | 34.36956 | -110.47929 | 39224 ft | 449 kts | 84° |
| 2026-05-08 01:27 | 34.37304 | -110.40379 | 39219 ft | 449 kts | 84° |
| 2026-05-08 01:28 | 34.37645 | -110.32861 | 39218 ft | 449 kts | 84° |
| 2026-05-08 01:28 | 34.37982 | -110.25352 | 39201 ft | 449 kts | 85° |
| 2026-05-08 01:29 | 34.38312 | -110.17850 | 39174 ft | 449 kts | 85° |
| 2026-05-08 01:29 | 34.38641 | -110.10299 | 39198 ft | 449 kts | 85° |
| 2026-05-08 01:30 | 34.38966 | -110.02746 | 39184 ft | 450 kts | 85° |
| 2026-05-08 01:30 | 34.39285 | -109.95200 | 39192 ft | 451 kts | 85° |
| 2026-05-08 01:31 | 34.39599 | -109.87663 | 39204 ft | 450 kts | 85° |
| 2026-05-08 01:31 | 34.39908 | -109.80133 | 39197 ft | 451 kts | 85° |
| 2026-05-08 01:32 | 34.40214 | -109.72538 | 39217 ft | 451 kts | 85° |
| 2026-05-08 01:32 | 34.40518 | -109.64988 | 39236 ft | 451 kts | 86° |
| 2026-05-08 01:33 | 34.40812 | -109.57433 | 39234 ft | 452 kts | 86° |
| 2026-05-08 01:33 | 34.41104 | -109.49857 | 39227 ft | 451 kts | 86° |
| 2026-05-08 01:34 | 34.41391 | -109.42316 | 39192 ft | 451 kts | 86° |
| 2026-05-08 01:34 | 34.41672 | -109.34724 | 39225 ft | 451 kts | 86° |
| 2026-05-08 01:35 | 34.41951 | -109.27149 | 39223 ft | 452 kts | 86° |
| 2026-05-08 01:35 | 34.42239 | -109.19546 | 39229 ft | 453 kts | 85° |
| 2026-05-08 01:36 | 34.42955 | -109.11929 | 39292 ft | 454 kts | 80° |
| 2026-05-08 01:36 | 34.44233 | -109.04468 | 39268 ft | 452 kts | 77° |
| 2026-05-08 01:37 | 34.45605 | -108.97055 | 39290 ft | 453 kts | 77° |
| 2026-05-08 01:37 | 34.46973 | -108.89634 | 39283 ft | 453 kts | 77° |
| 2026-05-08 01:38 | 34.48332 | -108.82216 | 39280 ft | 453 kts | 77° |
| 2026-05-08 01:38 | 34.49696 | -108.74762 | 39284 ft | 454 kts | 76° |
| 2026-05-08 01:39 | 34.51047 | -108.67340 | 39285 ft | 455 kts | 77° |
| 2026-05-08 01:39 | 34.52409 | -108.59837 | 39285 ft | 454 kts | 77° |
| 2026-05-08 01:40 | 34.53752 | -108.52393 | 39292 ft | 455 kts | 76° |
| 2026-05-08 01:40 | 34.55092 | -108.44942 | 39282 ft | 455 kts | 76° |
| 2026-05-08 01:41 | 34.56442 | -108.37413 | 39274 ft | 457 kts | 76° |
| 2026-05-08 01:41 | 34.57787 | -108.29884 | 39278 ft | 460 kts | 76° |
| 2026-05-08 01:42 | 34.59144 | -108.22267 | 39276 ft | 464 kts | 77° |
| 2026-05-08 01:42 | 34.60497 | -108.14642 | 39277 ft | 467 kts | 77° |
| 2026-05-08 01:43 | 34.61854 | -108.06958 | 39292 ft | 468 kts | 77° |
| 2026-05-08 01:43 | 34.63216 | -107.99209 | 39275 ft | 469 kts | 77° |
| 2026-05-08 01:44 | 34.64550 | -107.91608 | 39291 ft | 472 kts | 77° |
| 2026-05-08 01:44 | 34.65900 | -107.83859 | 39287 ft | 472 kts | 77° |
| 2026-05-08 01:45 | 34.67261 | -107.76036 | 39279 ft | 472 kts | 77° |
| 2026-05-08 01:45 | 34.68607 | -107.68268 | 39281 ft | 474 kts | 77° |
| 2026-05-08 01:46 | 34.69952 | -107.60463 | 39274 ft | 475 kts | 77° |
| 2026-05-08 01:46 | 34.71301 | -107.52618 | 39254 ft | 475 kts | 77° |
| 2026-05-08 01:47 | 34.72641 | -107.44775 | 39241 ft | 476 kts | 78° |
| 2026-05-08 01:47 | 34.73982 | -107.36903 | 39217 ft | 477 kts | 78° |
| 2026-05-08 01:48 | 34.75997 | -107.25024 | 39237 ft | 478 kts | 78° |
| 2026-05-08 01:48 | 34.77323 | -107.17156 | 39214 ft | 477 kts | 79° |
| 2026-05-08 01:49 | 34.78646 | -107.09271 | 39184 ft | 477 kts | 79° |
| 2026-05-08 01:49 | 34.79977 | -107.01319 | 39191 ft | 478 kts | 79° |
| 2026-05-08 01:50 | 34.81291 | -106.93419 | 39155 ft | 478 kts | 79° |
| 2026-05-08 01:50 | 34.82616 | -106.85421 | 39142 ft | 479 kts | 79° |
| 2026-05-08 01:51 | 34.83925 | -106.77493 | 39080 ft | 478 kts | 79° |
| 2026-05-08 01:51 | 34.85205 | -106.69721 | 39134 ft | 482 kts | 79° |
| 2026-05-08 01:52 | 34.86511 | -106.61723 | 39131 ft | 480 kts | 79° |
| 2026-05-08 01:52 | 34.87815 | -106.53741 | 39110 ft | 482 kts | 79° |
| 2026-05-08 01:53 | 34.89123 | -106.45670 | 39141 ft | 482 kts | 79° |
| 2026-05-08 01:53 | 34.90416 | -106.37666 | 39168 ft | 484 kts | 79° |
| 2026-05-08 01:54 | 34.91713 | -106.29610 | 39192 ft | 484 kts | 79° |
| 2026-05-08 01:54 | 34.92996 | -106.21603 | 39184 ft | 483 kts | 80° |
| 2026-05-08 01:55 | 34.94273 | -106.13592 | 39181 ft | 485 kts | 80° |
| 2026-05-08 01:55 | 34.95547 | -106.05559 | 39207 ft | 485 kts | 79° |
| 2026-05-08 01:56 | 34.96830 | -105.97455 | 39190 ft | 487 kts | 80° |
| 2026-05-08 01:56 | 34.98095 | -105.89417 | 39196 ft | 486 kts | 80° |
| 2026-05-08 01:57 | 34.99366 | -105.81298 | 39178 ft | 487 kts | 80° |
| 2026-05-08 01:57 | 35.00628 | -105.73193 | 39215 ft | 488 kts | 80° |
| 2026-05-08 01:58 | 35.01891 | -105.65048 | 39205 ft | 490 kts | 80° |
| 2026-05-08 01:58 | 35.03155 | -105.56873 | 39204 ft | 491 kts | 80° |
| 2026-05-08 01:59 | 35.04406 | -105.48732 | 39203 ft | 493 kts | 80° |
| 2026-05-08 01:59 | 35.05664 | -105.40514 | 39185 ft | 494 kts | 80° |
| 2026-05-08 02:00 | 35.06920 | -105.32286 | 39184 ft | 495 kts | 81° |
| 2026-05-08 02:00 | 35.08171 | -105.24015 | 39180 ft | 495 kts | 81° |
| 2026-05-08 02:01 | 35.09411 | -105.15798 | 39174 ft | 497 kts | 81° |
| 2026-05-08 02:01 | 35.10649 | -105.07530 | 39160 ft | 498 kts | 82° |
| 2026-05-08 02:02 | 35.11468 | -104.99127 | 39151 ft | 499 kts | 88° |
| 2026-05-08 02:02 | 35.11909 | -104.90918 | 39151 ft | 499 kts | 88° |
| 2026-05-08 02:03 | 35.12345 | -104.82480 | 39145 ft | 500 kts | 88° |
| 2026-05-08 02:03 | 35.12786 | -104.73990 | 39131 ft | 502 kts | 88° |
| 2026-05-08 02:04 | 35.13225 | -104.65536 | 39128 ft | 502 kts | 88° |
| 2026-05-08 02:04 | 35.13654 | -104.57149 | 39122 ft | 503 kts | 88° |
| 2026-05-08 02:05 | 35.14090 | -104.48617 | 39123 ft | 504 kts | 88° |
| 2026-05-08 02:05 | 35.14511 | -104.40143 | 39124 ft | 504 kts | 88° |
| 2026-05-08 02:06 | 35.14932 | -104.31593 | 39124 ft | 505 kts | 89° |
| 2026-05-08 02:06 | 35.15346 | -104.23066 | 39117 ft | 507 kts | 89° |
| 2026-05-08 02:07 | 35.15755 | -104.14472 | 39118 ft | 508 kts | 89° |
| 2026-05-08 02:07 | 35.16165 | -104.05838 | 39124 ft | 508 kts | 89° |
| 2026-05-08 02:08 | 35.16563 | -103.97256 | 39103 ft | 510 kts | 89° |
| 2026-05-08 02:08 | 35.16957 | -103.88609 | 39090 ft | 509 kts | 89° |
| 2026-05-08 02:09 | 35.17346 | -103.80005 | 39074 ft | 510 kts | 89° |
| 2026-05-08 02:09 | 35.17731 | -103.71327 | 39045 ft | 512 kts | 89° |
| 2026-05-08 02:10 | 35.18108 | -103.62633 | 39034 ft | 513 kts | 89° |
| 2026-05-08 02:10 | 35.18447 | -103.54009 | 39033 ft | 514 kts | 90° |
| 2026-05-08 02:11 | 35.18745 | -103.45264 | 39043 ft | 514 kts | 90° |
| 2026-05-08 02:11 | 35.19038 | -103.36531 | 39053 ft | 516 kts | 90° |
| 2026-05-08 02:12 | 35.19331 | -103.27804 | 39070 ft | 516 kts | 90° |
| 2026-05-08 02:12 | 35.19614 | -103.19064 | 39067 ft | 518 kts | 90° |
| 2026-05-08 02:13 | 35.19897 | -103.10286 | 39072 ft | 519 kts | 90° |
| 2026-05-08 02:13 | 35.20172 | -103.01491 | 39069 ft | 519 kts | 90° |
| 2026-05-08 02:14 | 35.20439 | -102.92656 | 39063 ft | 521 kts | 90° |
| 2026-05-08 02:14 | 35.20702 | -102.83806 | 39075 ft | 522 kts | 90° |
| 2026-05-08 02:15 | 35.20963 | -102.74952 | 39077 ft | 522 kts | 91° |
| 2026-05-08 02:15 | 35.21212 | -102.66093 | 39076 ft | 523 kts | 91° |
| 2026-05-08 02:16 | 35.21455 | -102.57230 | 39079 ft | 524 kts | 91° |
| 2026-05-08 02:16 | 35.21694 | -102.48331 | 39072 ft | 524 kts | 91° |
| 2026-05-08 02:17 | 35.21927 | -102.39451 | 39077 ft | 525 kts | 91° |
| 2026-05-08 02:17 | 35.22150 | -102.30499 | 39065 ft | 527 kts | 92° |
| 2026-05-08 02:18 | 35.22373 | -102.21597 | 39062 ft | 527 kts | 92° |
| 2026-05-08 02:18 | 35.22590 | -102.12605 | 39055 ft | 527 kts | 92° |
| 2026-05-08 02:19 | 35.22795 | -102.03654 | 39040 ft | 528 kts | 92° |
| 2026-05-08 02:19 | 35.22995 | -101.94661 | 39049 ft | 530 kts | 92° |
| 2026-05-08 02:20 | 35.23194 | -101.85648 | 39034 ft | 530 kts | 92° |
| 2026-05-08 02:20 | 35.23380 | -101.76672 | 39033 ft | 533 kts | 92° |
| 2026-05-08 02:21 | 35.23578 | -101.67749 | 39032 ft | 535 kts | 91° |
| 2026-05-08 02:21 | 35.23992 | -101.58669 | 39032 ft | 536 kts | 90° |
| 2026-05-08 02:22 | 35.24444 | -101.49553 | 39036 ft | 538 kts | 90° |
| 2026-05-08 02:22 | 35.24869 | -101.40432 | 39035 ft | 538 kts | 90° |
| 2026-05-08 02:23 | 35.25278 | -101.31308 | 39028 ft | 539 kts | 91° |
| 2026-05-08 02:23 | 35.25673 | -101.22187 | 39032 ft | 539 kts | 91° |
| 2026-05-08 02:24 | 35.26065 | -101.13094 | 39028 ft | 539 kts | 91° |
| 2026-05-08 02:24 | 35.26447 | -101.03956 | 39031 ft | 541 kts | 91° |
| 2026-05-08 02:25 | 35.26825 | -100.94768 | 39039 ft | 542 kts | 91° |
| 2026-05-08 02:25 | 35.27197 | -100.85551 | 39042 ft | 544 kts | 91° |
| 2026-05-08 02:26 | 35.27568 | -100.76292 | 39040 ft | 544 kts | 91° |
| 2026-05-08 02:26 | 35.27925 | -100.67091 | 39031 ft | 545 kts | 91° |
| 2026-05-08 02:27 | 35.28283 | -100.57845 | 39030 ft | 545 kts | 91° |
| 2026-05-08 02:27 | 35.28630 | -100.48582 | 39027 ft | 545 kts | 91° |
| 2026-05-08 02:28 | 35.28966 | -100.39351 | 39015 ft | 546 kts | 91° |
| 2026-05-08 02:28 | 35.29299 | -100.30083 | 39007 ft | 546 kts | 92° |
| 2026-05-08 02:29 | 35.29626 | -100.20824 | 39002 ft | 546 kts | 92° |
| 2026-05-08 02:29 | 35.29940 | -100.11594 | 38995 ft | 547 kts | 92° |
| 2026-05-08 02:30 | 35.30250 | -100.02309 | 38994 ft | 548 kts | 92° |
| 2026-05-08 02:30 | 35.30556 | -99.93014 | 38986 ft | 549 kts | 92° |
| 2026-05-08 02:31 | 35.30854 | -99.83693 | 38984 ft | 549 kts | 92° |
| 2026-05-08 02:31 | 35.31143 | -99.74442 | 38984 ft | 549 kts | 92° |
| 2026-05-08 02:32 | 35.31430 | -99.65110 | 38982 ft | 550 kts | 92° |
| 2026-05-08 02:32 | 35.31708 | -99.55751 | 38983 ft | 550 kts | 92° |
| 2026-05-08 02:33 | 35.31979 | -99.46457 | 38984 ft | 551 kts | 92° |
| 2026-05-08 02:33 | 35.32243 | -99.37068 | 38982 ft | 553 kts | 92° |
| 2026-05-08 02:34 | 35.32505 | -99.27647 | 38982 ft | 553 kts | 93° |
| 2026-05-08 02:34 | 35.32753 | -99.18291 | 38986 ft | 554 kts | 93° |
| 2026-05-08 02:35 | 35.32998 | -99.08843 | 38988 ft | 556 kts | 93° |
| 2026-05-08 02:35 | 35.33236 | -98.99390 | 38988 ft | 558 kts | 92° |
| 2026-05-08 02:36 | 35.33470 | -98.89898 | 38990 ft | 558 kts | 93° |
| 2026-05-08 02:36 | 35.33694 | -98.80380 | 38992 ft | 558 kts | 92° |
| 2026-05-08 02:37 | 35.33915 | -98.70902 | 38996 ft | 558 kts | 93° |
| 2026-05-08 02:37 | 35.34120 | -98.61427 | 38995 ft | 558 kts | 92° |
| 2026-05-08 02:38 | 35.34317 | -98.51959 | 38995 ft | 558 kts | 93° |
| 2026-05-08 02:38 | 35.34513 | -98.42436 | 38993 ft | 558 kts | 92° |
| 2026-05-08 02:39 | 35.34696 | -98.32969 | 38988 ft | 559 kts | 93° |
| 2026-05-08 02:39 | 35.34878 | -98.23479 | 38990 ft | 559 kts | 94° |
| 2026-05-08 02:40 | 35.35047 | -98.14043 | 38994 ft | 559 kts | 93° |
| 2026-05-08 02:40 | 35.35214 | -98.04493 | 38992 ft | 559 kts | 93° |
| 2026-05-08 02:41 | 35.35369 | -97.94985 | 38988 ft | 560 kts | 94° |
| 2026-05-08 02:41 | 35.35519 | -97.85452 | 38999 ft | 560 kts | 94° |
| 2026-05-08 02:42 | 35.35659 | -97.75936 | 38998 ft | 561 kts | 93° |
| 2026-05-08 02:42 | 35.35789 | -97.66416 | 38999 ft | 561 kts | 93° |
| 2026-05-08 02:43 | 35.35500 | -97.56946 | 39003 ft | 556 kts | 102° |
| 2026-05-08 02:43 | 35.34545 | -97.47514 | 39008 ft | 556 kts | 104° |
| 2026-05-08 02:44 | 35.33525 | -97.38170 | 39005 ft | 557 kts | 103° |
| 2026-05-08 02:44 | 35.32532 | -97.28815 | 39006 ft | 557 kts | 104° |
| 2026-05-08 02:45 | 35.31536 | -97.19373 | 39001 ft | 557 kts | 104° |
| 2026-05-08 02:45 | 35.30539 | -97.09950 | 39002 ft | 558 kts | 103° |
| 2026-05-08 02:46 | 35.29532 | -97.00523 | 39001 ft | 558 kts | 103° |
| 2026-05-08 02:46 | 35.28521 | -96.91121 | 39003 ft | 559 kts | 103° |
| 2026-05-08 02:47 | 35.27503 | -96.81730 | 39002 ft | 558 kts | 103° |
| 2026-05-08 02:47 | 35.26474 | -96.72308 | 39000 ft | 559 kts | 104° |
| 2026-05-08 02:48 | 35.25442 | -96.62954 | 39005 ft | 559 kts | 104° |
| 2026-05-08 02:48 | 35.24426 | -96.53767 | 39001 ft | 559 kts | 104° |
| 2026-05-08 02:49 | 35.23378 | -96.44392 | 39002 ft | 559 kts | 104° |
| 2026-05-08 02:49 | 35.22327 | -96.35037 | 39002 ft | 560 kts | 104° |
| 2026-05-08 02:50 | 35.21261 | -96.25577 | 38998 ft | 559 kts | 104° |
| 2026-05-08 02:50 | 35.20198 | -96.16258 | 39002 ft | 558 kts | 104° |
| 2026-05-08 02:51 | 35.19110 | -96.06834 | 38999 ft | 559 kts | 104° |
| 2026-05-08 02:51 | 35.18034 | -95.97517 | 39005 ft | 559 kts | 104° |
| 2026-05-08 02:52 | 35.16938 | -95.88107 | 39015 ft | 559 kts | 104° |
| 2026-05-08 02:52 | 35.15838 | -95.78687 | 39029 ft | 559 kts | 104° |
| 2026-05-08 02:53 | 35.14722 | -95.69241 | 39026 ft | 560 kts | 104° |
| 2026-05-08 02:53 | 35.13610 | -95.59840 | 39028 ft | 561 kts | 104° |
| 2026-05-08 02:54 | 35.12485 | -95.50422 | 39036 ft | 561 kts | 104° |
| 2026-05-08 02:54 | 35.11311 | -95.40994 | 39036 ft | 561 kts | 105° |
| 2026-05-08 02:55 | 35.09449 | -95.26977 | 39034 ft | 560 kts | 106° |
| 2026-05-08 02:56 | 35.08202 | -95.17615 | 39045 ft | 560 kts | 105° |
| 2026-05-08 02:56 | 35.06952 | -95.08261 | 39048 ft | 561 kts | 105° |
| 2026-05-08 02:57 | 35.05702 | -94.98951 | 39042 ft | 560 kts | 105° |
| 2026-05-08 02:57 | 35.04441 | -94.89587 | 39038 ft | 560 kts | 105° |
| 2026-05-08 02:58 | 35.03168 | -94.80238 | 39041 ft | 563 kts | 105° |
| 2026-05-08 02:58 | 35.01883 | -94.70815 | 39043 ft | 563 kts | 105° |
| 2026-05-08 02:59 | 35.00945 | -94.61320 | 39049 ft | 566 kts | 100° |
| 2026-05-08 02:59 | 35.00286 | -94.51807 | 39045 ft | 567 kts | 98° |
| 2026-05-08 03:00 | 34.99629 | -94.42258 | 39044 ft | 567 kts | 99° |
| 2026-05-08 03:00 | 34.98941 | -94.32713 | 39038 ft | 567 kts | 100° |
| 2026-05-08 03:01 | 34.98227 | -94.23144 | 39055 ft | 568 kts | 99° |
| 2026-05-08 03:01 | 34.97524 | -94.13615 | 39048 ft | 568 kts | 99° |
| 2026-05-08 03:02 | 34.96801 | -94.04041 | 39051 ft | 569 kts | 99° |
| 2026-05-08 03:02 | 34.96068 | -93.94460 | 39050 ft | 569 kts | 99° |
| 2026-05-08 03:03 | 34.95334 | -93.84884 | 39040 ft | 570 kts | 99° |
| 2026-05-08 03:03 | 34.94595 | -93.75353 | 39052 ft | 568 kts | 98° |
| 2026-05-08 03:04 | 34.93844 | -93.65780 | 39045 ft | 569 kts | 100° |
| 2026-05-08 03:04 | 34.93089 | -93.56233 | 39043 ft | 568 kts | 99° |
| 2026-05-08 03:05 | 34.92320 | -93.46711 | 39027 ft | 568 kts | 99° |
| 2026-05-08 03:05 | 34.91540 | -93.37105 | 39039 ft | 569 kts | 99° |
| 2026-05-08 03:06 | 34.90763 | -93.27545 | 39035 ft | 568 kts | 100° |
| 2026-05-08 03:06 | 34.89975 | -93.18012 | 39037 ft | 569 kts | 101° |
| 2026-05-08 03:07 | 34.89182 | -93.08476 | 39037 ft | 567 kts | 101° |
| 2026-05-08 03:07 | 34.88383 | -92.98934 | 39033 ft | 566 kts | 101° |
| 2026-05-08 03:08 | 34.87575 | -92.89446 | 39046 ft | 566 kts | 100° |
| 2026-05-08 03:08 | 34.86757 | -92.79896 | 39040 ft | 566 kts | 100° |
| 2026-05-08 03:09 | 34.85937 | -92.70403 | 39042 ft | 566 kts | 100° |
| 2026-05-08 03:09 | 34.85099 | -92.60838 | 39049 ft | 567 kts | 101° |
| 2026-05-08 03:10 | 34.84255 | -92.51295 | 39056 ft | 567 kts | 100° |
| 2026-05-08 03:10 | 34.83409 | -92.41797 | 39051 ft | 568 kts | 101° |
| 2026-05-08 03:11 | 34.82561 | -92.32223 | 39055 ft | 566 kts | 101° |
| 2026-05-08 03:11 | 34.81698 | -92.22690 | 39053 ft | 567 kts | 100° |
| 2026-05-08 03:12 | 34.81366 | -92.13101 | 39053 ft | 570 kts | 91° |
| 2026-05-08 03:12 | 34.82071 | -92.03513 | 39059 ft | 570 kts | 83° |
| 2026-05-08 03:13 | 34.83133 | -91.93958 | 39055 ft | 570 kts | 82° |
| 2026-05-08 03:13 | 34.84150 | -91.84450 | 39044 ft | 570 kts | 83° |
| 2026-05-08 03:14 | 34.85122 | -91.74891 | 39036 ft | 571 kts | 84° |
| 2026-05-08 03:14 | 34.86077 | -91.65348 | 39032 ft | 570 kts | 84° |
| 2026-05-08 03:15 | 34.87021 | -91.55780 | 39036 ft | 571 kts | 84° |
| 2026-05-08 03:15 | 34.87954 | -91.46236 | 39034 ft | 570 kts | 82° |
| 2026-05-08 03:16 | 34.88897 | -91.36647 | 39040 ft | 572 kts | 83° |
| 2026-05-08 03:16 | 34.89823 | -91.27042 | 39038 ft | 572 kts | 84° |
| 2026-05-08 03:17 | 34.90740 | -91.17455 | 39037 ft | 571 kts | 83° |
| 2026-05-08 03:17 | 34.91656 | -91.07816 | 39037 ft | 572 kts | 84° |
| 2026-05-08 03:18 | 34.92567 | -90.98206 | 39041 ft | 572 kts | 84° |
| 2026-05-08 03:18 | 34.93460 | -90.88603 | 39046 ft | 573 kts | 84° |
| 2026-05-08 03:19 | 34.94346 | -90.78970 | 39046 ft | 573 kts | 84° |
| 2026-05-08 03:19 | 34.95236 | -90.69337 | 39050 ft | 573 kts | 84° |
| 2026-05-08 03:20 | 34.96110 | -90.59763 | 39043 ft | 571 kts | 83° |
| 2026-05-08 03:20 | 34.96976 | -90.50108 | 39057 ft | 571 kts | 83° |
| 2026-05-08 03:21 | 34.97834 | -90.40512 | 39053 ft | 573 kts | 83° |
| 2026-05-08 03:21 | 34.98689 | -90.30911 | 39052 ft | 572 kts | 84° |
| 2026-05-08 03:22 | 34.99543 | -90.21255 | 39061 ft | 572 kts | 85° |
| 2026-05-08 03:22 | 35.00377 | -90.11540 | 39063 ft | 572 kts | 84° |
| 2026-05-08 03:23 | 35.01032 | -90.01891 | 39066 ft | 572 kts | 90° |
| 2026-05-08 03:23 | 35.00686 | -89.92237 | 39067 ft | 567 kts | 101° |
| 2026-05-08 03:24 | 34.99321 | -89.82559 | 39073 ft | 568 kts | 105° |
| 2026-05-08 03:24 | 34.97842 | -89.73105 | 39071 ft | 571 kts | 106° |
| 2026-05-08 03:25 | 34.96420 | -89.63635 | 39066 ft | 570 kts | 104° |
| 2026-05-08 03:25 | 34.94997 | -89.54085 | 39062 ft | 572 kts | 103° |
| 2026-05-08 03:26 | 34.93598 | -89.44579 | 39063 ft | 571 kts | 104° |
| 2026-05-08 03:26 | 34.92158 | -89.35027 | 39066 ft | 571 kts | 104° |
| 2026-05-08 03:27 | 34.90732 | -89.25520 | 39056 ft | 572 kts | 104° |
| 2026-05-08 03:27 | 34.89290 | -89.16000 | 39056 ft | 572 kts | 104° |
| 2026-05-08 03:28 | 34.87836 | -89.06444 | 39049 ft | 572 kts | 104° |
| 2026-05-08 03:28 | 34.86364 | -88.96833 | 39059 ft | 573 kts | 104° |
| 2026-05-08 03:29 | 34.84911 | -88.87327 | 39054 ft | 571 kts | 104° |
| 2026-05-08 03:29 | 34.83431 | -88.77840 | 39054 ft | 573 kts | 104° |
| 2026-05-08 03:30 | 34.81232 | -88.63638 | 39060 ft | 571 kts | 103° |
| 2026-05-08 03:31 | 34.78243 | -88.44687 | 39053 ft | 572 kts | 104° |
| 2026-05-08 03:32 | 34.75992 | -88.30502 | 39041 ft | 571 kts | 105° |
| 2026-05-08 03:32 | 34.74484 | -88.21030 | 39072 ft | 571 kts | 105° |
| 2026-05-08 03:33 | 34.72969 | -88.11603 | 39066 ft | 572 kts | 104° |
| 2026-05-08 03:33 | 34.71447 | -88.02160 | 39067 ft | 572 kts | 103° |
| 2026-05-08 03:34 | 34.69918 | -87.92693 | 39052 ft | 571 kts | 104° |
| 2026-05-08 03:34 | 34.68380 | -87.83263 | 39062 ft | 570 kts | 104° |
| 2026-05-08 03:34 | 34.67600 | -87.78533 | 38850 ft | 571 kts | 103° |
| 2026-05-08 03:35 | 34.66833 | -87.73828 | 38546 ft | 571 kts | 104° |
| 2026-05-08 03:35 | 34.66069 | -87.69136 | 38254 ft | 571 kts | 104° |
| 2026-05-08 03:35 | 34.65292 | -87.64245 | 37964 ft | 571 kts | 104° |
| 2026-05-08 03:35 | 34.64564 | -87.59517 | 37667 ft | 571 kts | 102° |
| 2026-05-08 03:36 | 34.63841 | -87.54721 | 37377 ft | 571 kts | 104° |
| 2026-05-08 03:36 | 34.63131 | -87.50024 | 37098 ft | 569 kts | 104° |
| 2026-05-08 03:36 | 34.62408 | -87.45304 | 36819 ft | 570 kts | 104° |
| 2026-05-08 03:36 | 34.61680 | -87.40612 | 36538 ft | 571 kts | 103° |
| 2026-05-08 03:37 | 34.60956 | -87.35876 | 36252 ft | 570 kts | 104° |
| 2026-05-08 03:37 | 34.60224 | -87.31140 | 35960 ft | 569 kts | 105° |
| 2026-05-08 03:37 | 34.59502 | -87.26456 | 35684 ft | 567 kts | 104° |
| 2026-05-08 03:37 | 34.58763 | -87.21757 | 35400 ft | 561 kts | 104° |
| 2026-05-08 03:38 | 34.58039 | -87.17125 | 35126 ft | 558 kts | 104° |
| 2026-05-08 03:38 | 34.57318 | -87.12515 | 34851 ft | 557 kts | 104° |
| 2026-05-08 03:38 | 34.56596 | -87.07898 | 34576 ft | 555 kts | 104° |
| 2026-05-08 03:38 | 34.55877 | -87.03309 | 34302 ft | 555 kts | 105° |
| 2026-05-08 03:39 | 34.55164 | -86.98792 | 34037 ft | 554 kts | 105° |
| 2026-05-08 03:39 | 34.54377 | -86.94216 | 33763 ft | 553 kts | 108° |
| 2026-05-08 03:39 | 34.53375 | -86.89746 | 33492 ft | 551 kts | 112° |
| 2026-05-08 03:39 | 34.52241 | -86.85317 | 33228 ft | 549 kts | 114° |
| 2026-05-08 03:40 | 34.51068 | -86.80903 | 32972 ft | 549 kts | 114° |
| 2026-05-08 03:40 | 34.49898 | -86.76520 | 32714 ft | 550 kts | 113° |
| 2026-05-08 03:40 | 34.48735 | -86.72113 | 32452 ft | 551 kts | 112° |
| 2026-05-08 03:40 | 34.47581 | -86.67689 | 32154 ft | 551 kts | 113° |
| 2026-05-08 03:41 | 34.46422 | -86.63261 | 31782 ft | 552 kts | 112° |
| 2026-05-08 03:41 | 34.45264 | -86.58851 | 31271 ft | 553 kts | 112° |
| 2026-05-08 03:41 | 34.44118 | -86.54455 | 30841 ft | 550 kts | 112° |
| 2026-05-08 03:41 | 34.42964 | -86.50035 | 30528 ft | 544 kts | 112° |
| 2026-05-08 03:42 | 34.41836 | -86.45757 | 30166 ft | 539 kts | 112° |
| 2026-05-08 03:42 | 34.40706 | -86.41466 | 29822 ft | 534 kts | 113° |
| 2026-05-08 03:42 | 34.39573 | -86.37183 | 29464 ft | 530 kts | 112° |
| 2026-05-08 03:42 | 34.38446 | -86.32928 | 29075 ft | 526 kts | 114° |
| 2026-05-08 03:43 | 34.37345 | -86.28749 | 28761 ft | 521 kts | 113° |
| 2026-05-08 03:43 | 34.36244 | -86.24603 | 28394 ft | 517 kts | 113° |
| 2026-05-08 03:43 | 34.35140 | -86.20448 | 28019 ft | 514 kts | 113° |
| 2026-05-08 03:43 | 34.34050 | -86.16357 | 27684 ft | 509 kts | 112° |
| 2026-05-08 03:44 | 34.32984 | -86.12322 | 27321 ft | 506 kts | 112° |
| 2026-05-08 03:44 | 34.31931 | -86.08269 | 26973 ft | 502 kts | 112° |
| 2026-05-08 03:44 | 34.30909 | -86.04301 | 26650 ft | 498 kts | 112° |
| 2026-05-08 03:44 | 34.29878 | -86.00309 | 26331 ft | 494 kts | 112° |
| 2026-05-08 03:45 | 34.28851 | -85.96340 | 25987 ft | 491 kts | 112° |
| 2026-05-08 03:45 | 34.27840 | -85.92455 | 25628 ft | 488 kts | 111° |
| 2026-05-08 03:45 | 34.26820 | -85.88547 | 25251 ft | 485 kts | 111° |
| 2026-05-08 03:45 | 34.25817 | -85.84698 | 24900 ft | 482 kts | 112° |
| 2026-05-08 03:46 | 34.24809 | -85.80838 | 24563 ft | 479 kts | 112° |
| 2026-05-08 03:46 | 34.23806 | -85.76994 | 24208 ft | 477 kts | 112° |
| 2026-05-08 03:46 | 34.22815 | -85.73218 | 23878 ft | 474 kts | 111° |
| 2026-05-08 03:46 | 34.21816 | -85.69406 | 23527 ft | 471 kts | 111° |
| 2026-05-08 03:47 | 34.20829 | -85.65656 | 23213 ft | 469 kts | 111° |
| 2026-05-08 03:47 | 34.19847 | -85.61922 | 22873 ft | 466 kts | 111° |
| 2026-05-08 03:47 | 34.18869 | -85.58218 | 22525 ft | 464 kts | 111° |
| 2026-05-08 03:47 | 34.17883 | -85.54490 | 22159 ft | 463 kts | 111° |
| 2026-05-08 03:48 | 34.16917 | -85.50832 | 21805 ft | 461 kts | 110° |
| 2026-05-08 03:48 | 34.15947 | -85.47160 | 21474 ft | 459 kts | 111° |
| 2026-05-08 03:48 | 34.14976 | -85.43492 | 21146 ft | 456 kts | 110° |
| 2026-05-08 03:48 | 34.14010 | -85.39857 | 20786 ft | 455 kts | 110° |
| 2026-05-08 03:49 | 34.13070 | -85.36259 | 20452 ft | 453 kts | 110° |
| 2026-05-08 03:49 | 34.12133 | -85.32627 | 20107 ft | 449 kts | 110° |
| 2026-05-08 03:49 | 34.11215 | -85.29069 | 19800 ft | 446 kts | 110° |
| 2026-05-08 03:49 | 34.10290 | -85.25505 | 19466 ft | 443 kts | 110° |
| 2026-05-08 03:50 | 34.09374 | -85.21963 | 19152 ft | 440 kts | 110° |
| 2026-05-08 03:50 | 34.08474 | -85.18501 | 18842 ft | 436 kts | 110° |
| 2026-05-08 03:50 | 34.07561 | -85.14998 | 18506 ft | 433 kts | 110° |
| 2026-05-08 03:50 | 34.06661 | -85.11547 | 18187 ft | 430 kts | 110° |
| 2026-05-08 03:51 | 34.05762 | -85.08136 | 17847 ft | 427 kts | 112° |
| 2026-05-08 03:51 | 34.04471 | -85.04955 | 17491 ft | 417 kts | 129° |
| 2026-05-08 03:51 | 34.02607 | -85.02408 | 17161 ft | 405 kts | 144° |
| 2026-05-08 03:51 | 34.00484 | -85.00227 | 16829 ft | 400 kts | 147° |
| 2026-05-08 03:52 | 33.98327 | -84.98106 | 16500 ft | 397 kts | 147° |
| 2026-05-08 03:52 | 33.96188 | -84.95973 | 16174 ft | 395 kts | 146° |
| 2026-05-08 03:52 | 33.94101 | -84.93845 | 15839 ft | 393 kts | 146° |
| 2026-05-08 03:52 | 33.92036 | -84.91709 | 15511 ft | 391 kts | 145° |
| 2026-05-08 03:53 | 33.89965 | -84.89564 | 15186 ft | 389 kts | 145° |
| 2026-05-08 03:53 | 33.87947 | -84.87472 | 14874 ft | 386 kts | 145° |
| 2026-05-08 03:53 | 33.85908 | -84.85365 | 14552 ft | 384 kts | 145° |
| 2026-05-08 03:53 | 33.83898 | -84.83282 | 14228 ft | 382 kts | 145° |
| 2026-05-08 03:54 | 33.81882 | -84.81198 | 13903 ft | 379 kts | 144° |
| 2026-05-08 03:54 | 33.79890 | -84.79144 | 13583 ft | 377 kts | 145° |
| 2026-05-08 03:54 | 33.77903 | -84.77093 | 13272 ft | 375 kts | 145° |
| 2026-05-08 03:54 | 33.75943 | -84.75070 | 12956 ft | 373 kts | 144° |
| 2026-05-08 03:55 | 33.74074 | -84.72867 | 12610 ft | 379 kts | 129° |
| 2026-05-08 03:55 | 33.73005 | -84.69965 | 12286 ft | 384 kts | 101° |
| 2026-05-08 03:55 | 33.72866 | -84.66797 | 11992 ft | 380 kts | 86° |
| 2026-05-08 03:55 | 33.73042 | -84.63665 | 11684 ft | 378 kts | 84° |
| 2026-05-08 03:56 | 33.73207 | -84.60519 | 11374 ft | 376 kts | 86° |
| 2026-05-08 03:56 | 33.73293 | -84.57360 | 11058 ft | 375 kts | 88° |
| 2026-05-08 03:56 | 33.73317 | -84.54266 | 10749 ft | 373 kts | 89° |
| 2026-05-08 03:56 | 33.73315 | -84.51147 | 10438 ft | 371 kts | 89° |
| 2026-05-08 03:57 | 33.73307 | -84.48043 | 10141 ft | 369 kts | 89° |
| 2026-05-08 03:57 | 33.73304 | -84.45006 | 10067 ft | 359 kts | 89° |
| 2026-05-08 03:57 | 33.73300 | -84.42127 | 10027 ft | 348 kts | 89° |
| 2026-05-08 03:57 | 33.73299 | -84.39301 | 9991 ft | 337 kts | 89° |
| 2026-05-08 03:58 | 33.73298 | -84.36500 | 9785 ft | 334 kts | 89° |
| 2026-05-08 03:58 | 33.73298 | -84.33727 | 9508 ft | 333 kts | 89° |
| 2026-05-08 03:58 | 33.73298 | -84.30957 | 9251 ft | 331 kts | 89° |
| 2026-05-08 03:58 | 33.73298 | -84.28182 | 8995 ft | 329 kts | 89° |
| 2026-05-08 03:59 | 33.73303 | -84.25445 | 8743 ft | 326 kts | 89° |
| 2026-05-08 03:59 | 33.73307 | -84.22713 | 8494 ft | 324 kts | 89° |
| 2026-05-08 03:59 | 33.73310 | -84.20003 | 8250 ft | 322 kts | 89° |
| 2026-05-08 03:59 | 33.73312 | -84.17318 | 8002 ft | 320 kts | 89° |
| 2026-05-08 04:00 | 33.73313 | -84.14687 | 7761 ft | 317 kts | 89° |
| 2026-05-08 04:00 | 33.73313 | -84.12048 | 7521 ft | 315 kts | 89° |
| 2026-05-08 04:00 | 33.73316 | -84.09389 | 7277 ft | 314 kts | 89° |
| 2026-05-08 04:00 | 33.73320 | -84.06801 | 7007 ft | 313 kts | 89° |
| 2026-05-08 04:01 | 33.73320 | -84.04188 | 6872 ft | 307 kts | 90° |
| 2026-05-08 04:01 | 33.72997 | -84.01717 | 6737 ft | 299 kts | 117° |
| 2026-05-08 04:01 | 33.71725 | -83.99832 | 6653 ft | 279 kts | 153° |
| 2026-05-08 04:01 | 33.70009 | -83.99155 | 6581 ft | 252 kts | 187° |
| 2026-05-08 04:02 | 33.68339 | -83.99480 | 6508 ft | 232 kts | 208° |
| 2026-05-08 04:02 | 33.66958 | -84.00349 | 6402 ft | 217 kts | 224° |
| 2026-05-08 04:02 | 33.65936 | -84.01611 | 6135 ft | 210 kts | 245° |
| 2026-05-08 04:02 | 33.65322 | -84.03257 | 5644 ft | 220 kts | 256° |
| 2026-05-08 04:03 | 33.64986 | -84.05068 | 5170 ft | 228 kts | 266° |
| 2026-05-08 04:03 | 33.64956 | -84.08950 | 4979 ft | 238 kts | 274° |
| 2026-05-08 04:03 | 33.64997 | -84.10944 | 4976 ft | 238 kts | 273° |
| 2026-05-08 04:04 | 33.65015 | -84.12897 | 4967 ft | 229 kts | 272° |
| 2026-05-08 04:04 | 33.65016 | -84.14765 | 4961 ft | 218 kts | 272° |
| 2026-05-08 04:04 | 33.65010 | -84.16551 | 4860 ft | 211 kts | 272° |
| 2026-05-08 04:04 | 33.65002 | -84.18318 | 4600 ft | 212 kts | 272° |
| 2026-05-08 04:05 | 33.64994 | -84.20092 | 4321 ft | 213 kts | 272° |
| 2026-05-08 04:05 | 33.64986 | -84.21874 | 4039 ft | 215 kts | 273° |
| 2026-05-08 04:05 | 33.64980 | -84.23671 | 3755 ft | 216 kts | 273° |
| 2026-05-08 04:05 | 33.64973 | -84.25436 | 3467 ft | 208 kts | 274° |
| 2026-05-08 04:06 | 33.64968 | -84.27132 | 3201 ft | 202 kts | 275° |
| 2026-05-08 04:06 | 33.64964 | -84.28786 | 2954 ft | 196 kts | 274° |
| 2026-05-08 04:06 | 33.64961 | -84.30399 | 2684 ft | 186 kts | 274° |
| 2026-05-08 04:06 | 33.64959 | -84.31892 | 2452 ft | 176 kts | 274° |
| 2026-05-08 04:07 | 33.64958 | -84.33349 | 2245 ft | 168 kts | 274° |
| 2026-05-08 04:07 | 33.64960 | -84.34704 | 2024 ft | 161 kts | 275° |
| 2026-05-08 04:07 | 33.64965 | -84.36021 | 1822 ft | 152 kts | 274° |
| 2026-05-08 04:07 | 33.64962 | -84.37246 | 1625 ft | 146 kts | 272° |
| 2026-05-08 04:08 | 33.64957 | -84.38468 | 1381 ft | 143 kts | 272° |
| 2026-05-08 04:08 | 33.64962 | -84.39625 | 1209 ft | 137 kts | 271° |
| 2026-05-08 04:08 | 33.64955 | -84.40781 | 1072 ft | 139 kts | 271° |
| 2026-05-08 04:08 | 33.64955 | -84.41915 | 987 ft | 124 kts | 270° |
| 2026-05-08 04:09 | 33.64955 | -84.42590 | 999 ft | 37 kts | 270° |
| 2026-05-08 04:09 | 33.64955 | -84.42927 | 1006 ft | 43 kts | 271° |
| 2026-05-08 04:09 | 33.64894 | -84.43263 | 1014 ft | 39 kts | 240° |
| 2026-05-08 04:09 | 33.64845 | -84.43467 | 1019 ft | 23 kts | 269° |
| 2026-05-08 04:10 | 33.64806 | -84.43550 | 1021 ft | 13 kts | 207° |
| 2026-05-08 04:10 | 33.64656 | -84.43645 | 1023 ft | 27 kts | 211° |
| 2026-05-08 04:10 | 33.64549 | -84.43630 | 1023 ft | 17 kts | 111° |
| 2026-05-08 04:10 | 33.64542 | -84.43477 | 1020 ft | 19 kts | 89° |
| 2026-05-08 04:11 | 33.64545 | -84.43304 | 1016 ft | 22 kts | 90° |
| 2026-05-08 04:11 | 33.64535 | -84.43130 | 1014 ft | 17 kts | 119° |
| 2026-05-08 04:11 | 33.64470 | -84.43098 | 1014 ft | 6 kts | 167° |
| 2026-05-08 04:11 | 33.64415 | -84.43068 | 1014 ft | 10 kts | 164° |
| 2026-05-08 04:12 | 33.64331 | -84.43061 | 1015 ft | 12 kts | 180° |
| 2026-05-08 04:12 | 33.64243 | -84.43070 | 1017 ft | 13 kts | 182° |
| 2026-05-08 04:12 | 33.64146 | -84.43071 | 1017 ft | 14 kts | 181° |
| 2026-05-08 04:12 | 33.64086 | -84.43054 | 1017 ft | 1 kts | 122° |
| 2026-05-08 04:13 | 33.64070 | -84.43029 | 1017 ft | 7 kts | 126° |
| 2026-05-08 04:13 | 33.64053 | -84.42995 | 1017 ft | 0 kts | 118° |